sensor_id;sensor_type;location;lat;lon;timestamp;P1;durP1;ratioP1;P2;durP2;ratioP2
67191;SDS011;54120;53.504;49.426;2022-08-01T00:01:12;44.92;;;32.90;;
67191;SDS011;54120;53.504;49.426;2022-08-01T00:03:38;16.40;;;12.05;;
67191;SDS011;54120;53.504;49.426;2022-08-01T00:06:05;40.78;;;29.65;;
67191;SDS011;54120;53.504;49.426;2022-08-01T00:08:31;10.02;;;7.20;;
67191;SDS011;54120;53.504;49.426;2022-08-01T00:10:57;9.13;;;7.40;;
67191;SDS011;54120;53.504;49.426;2022-08-01T00:13:23;35.38;;;25.02;;
67191;SDS011;54120;53.504;49.426;2022-08-01T00:15:49;16.27;;;11.27;;
67191;SDS011;54120;53.504;49.426;2022-08-01T00:18:15;17.23;;;12.65;;
67191;SDS011;54120;53.504;49.426;2022-08-01T00:20:41;10.27;;;7.57;;
67191;SDS011;54120;53.504;49.426;2022-08-01T00:23:07;10.55;;;7.88;;
67191;SDS011;54120;53.504;49.426;2022-08-01T00:25:34;12.27;;;7.50;;
67191;SDS011;54120;53.504;49.426;2022-08-01T00:28:00;26.30;;;9.55;;
67191;SDS011;54120;53.504;49.426;2022-08-01T00:30:26;12.02;;;9.80;;
67191;SDS011;54120;53.504;49.426;2022-08-01T00:32:52;10.02;;;8.05;;
67191;SDS011;54120;53.504;49.426;2022-08-01T00:35:19;10.27;;;7.82;;
67191;SDS011;54120;53.504;49.426;2022-08-01T00:37:45;13.45;;;11.95;;
67191;SDS011;54120;53.504;49.426;2022-08-01T00:40:11;12.15;;;8.85;;
67191;SDS011;54120;53.504;49.426;2022-08-01T00:42:37;9.50;;;8.15;;
67191;SDS011;54120;53.504;49.426;2022-08-01T00:45:03;12.18;;;7.88;;
67191;SDS011;54120;53.504;49.426;2022-08-01T00:47:30;10.05;;;8.60;;
67191;SDS011;54120;53.504;49.426;2022-08-01T00:49:56;12.07;;;7.78;;
67191;SDS011;54120;53.504;49.426;2022-08-01T00:52:22;9.68;;;7.88;;
67191;SDS011;54120;53.504;49.426;2022-08-01T00:54:49;10.77;;;7.55;;
67191;SDS011;54120;53.504;49.426;2022-08-01T00:57:17;10.63;;;8.05;;
67191;SDS011;54120;53.504;49.426;2022-08-01T00:59:43;11.75;;;8.00;;
67191;SDS011;54120;53.504;49.426;2022-08-01T01:02:09;10.68;;;7.03;;
67191;SDS011;54120;53.504;49.426;2022-08-01T01:04:35;10.30;;;7.25;;
67191;SDS011;54120;53.504;49.426;2022-08-01T01:15:08;7.85;;;6.20;;
67191;SDS011;54120;53.504;49.426;2022-08-01T01:20:27;8.35;;;6.60;;
67191;SDS011;54120;53.504;49.426;2022-08-01T01:26:04;9.13;;;6.32;;
67191;SDS011;54120;53.504;49.426;2022-08-01T01:31:28;7.22;;;5.85;;
67191;SDS011;54120;53.504;49.426;2022-08-01T01:33:58;7.22;;;6.03;;
67191;SDS011;54120;53.504;49.426;2022-08-01T01:36:28;5.70;;;5.22;;
67191;SDS011;54120;53.504;49.426;2022-08-01T01:38:56;7.25;;;6.13;;
67191;SDS011;54120;53.504;49.426;2022-08-01T01:41:23;7.95;;;5.97;;
67191;SDS011;54120;53.504;49.426;2022-08-01T01:43:49;6.95;;;5.88;;
67191;SDS011;54120;53.504;49.426;2022-08-01T01:46:17;7.78;;;5.85;;
67191;SDS011;54120;53.504;49.426;2022-08-01T01:48:48;7.93;;;5.70;;
67191;SDS011;54120;53.504;49.426;2022-08-01T01:51:15;9.00;;;5.97;;
67191;SDS011;54120;53.504;49.426;2022-08-01T01:53:43;10.85;;;5.90;;
67191;SDS011;54120;53.504;49.426;2022-08-01T01:56:10;8.05;;;5.70;;
67191;SDS011;54120;53.504;49.426;2022-08-01T01:58:37;9.65;;;5.65;;
67191;SDS011;54120;53.504;49.426;2022-08-01T02:01:04;6.50;;;5.30;;
67191;SDS011;54120;53.504;49.426;2022-08-01T02:03:33;16.48;;;5.65;;
67191;SDS011;54120;53.504;49.426;2022-08-01T02:06:02;11.30;;;5.40;;
67191;SDS011;54120;53.504;49.426;2022-08-01T02:08:29;7.85;;;5.32;;
67191;SDS011;54120;53.504;49.426;2022-08-01T02:10:58;7.10;;;5.00;;
67191;SDS011;54120;53.504;49.426;2022-08-01T02:14:03;5.72;;;4.93;;
67191;SDS011;54120;53.504;49.426;2022-08-01T02:16:31;6.32;;;4.57;;
67191;SDS011;54120;53.504;49.426;2022-08-01T02:19:00;8.75;;;5.13;;
67191;SDS011;54120;53.504;49.426;2022-08-01T02:21:28;7.30;;;5.00;;
67191;SDS011;54120;53.504;49.426;2022-08-01T02:24:03;5.35;;;4.30;;
67191;SDS011;54120;53.504;49.426;2022-08-01T02:26:41;5.05;;;4.13;;
67191;SDS011;54120;53.504;49.426;2022-08-01T02:29:13;6.68;;;4.43;;
67191;SDS011;54120;53.504;49.426;2022-08-01T02:31:43;5.80;;;4.13;;
67191;SDS011;54120;53.504;49.426;2022-08-01T02:34:13;6.53;;;4.30;;
67191;SDS011;54120;53.504;49.426;2022-08-01T02:36:43;9.60;;;4.30;;
67191;SDS011;54120;53.504;49.426;2022-08-01T02:39:12;5.93;;;3.95;;
67191;SDS011;54120;53.504;49.426;2022-08-01T02:41:41;4.82;;;4.05;;
67191;SDS011;54120;53.504;49.426;2022-08-01T02:44:09;5.50;;;4.30;;
67191;SDS011;54120;53.504;49.426;2022-08-01T02:46:49;3.63;;;3.33;;
67191;SDS011;54120;53.504;49.426;2022-08-01T02:49:20;5.90;;;3.85;;
67191;SDS011;54120;53.504;49.426;2022-08-01T02:51:49;5.95;;;3.83;;
67191;SDS011;54120;53.504;49.426;2022-08-01T02:54:17;5.60;;;3.60;;
67191;SDS011;54120;53.504;49.426;2022-08-01T02:56:47;6.75;;;3.85;;
67191;SDS011;54120;53.504;49.426;2022-08-01T02:59:16;6.18;;;3.28;;
67191;SDS011;54120;53.504;49.426;2022-08-01T03:01:44;4.22;;;3.83;;
67191;SDS011;54120;53.504;49.426;2022-08-01T03:04:11;5.93;;;3.42;;
67191;SDS011;54120;53.504;49.426;2022-08-01T03:06:38;6.90;;;3.97;;
67191;SDS011;54120;53.504;49.426;2022-08-01T03:09:05;5.03;;;3.92;;
67191;SDS011;54120;53.504;49.426;2022-08-01T03:11:33;5.38;;;3.80;;
67191;SDS011;54120;53.504;49.426;2022-08-01T03:14:02;4.05;;;3.42;;
67191;SDS011;54120;53.504;49.426;2022-08-01T03:16:31;3.90;;;3.55;;
67191;SDS011;54120;53.504;49.426;2022-08-01T03:18:59;7.57;;;3.85;;
67191;SDS011;54120;53.504;49.426;2022-08-01T03:21:27;6.55;;;3.92;;
67191;SDS011;54120;53.504;49.426;2022-08-01T03:23:55;8.23;;;3.85;;
67191;SDS011;54120;53.504;49.426;2022-08-01T03:26:24;4.32;;;3.25;;
67191;SDS011;54120;53.504;49.426;2022-08-01T03:28:56;9.30;;;3.88;;
67191;SDS011;54120;53.504;49.426;2022-08-01T03:31:25;11.52;;;3.70;;
67191;SDS011;54120;53.504;49.426;2022-08-01T03:33:52;4.50;;;3.63;;
67191;SDS011;54120;53.504;49.426;2022-08-01T03:36:21;7.50;;;4.05;;
67191;SDS011;54120;53.504;49.426;2022-08-01T03:38:52;6.63;;;4.00;;
67191;SDS011;54120;53.504;49.426;2022-08-01T03:41:22;6.22;;;4.00;;
67191;SDS011;54120;53.504;49.426;2022-08-01T03:44:33;10.85;;;4.25;;
67191;SDS011;54120;53.504;49.426;2022-08-01T03:46:52;7.32;;;3.80;;
67191;SDS011;54120;53.504;49.426;2022-08-01T03:49:25;8.48;;;4.38;;
67191;SDS011;54120;53.504;49.426;2022-08-01T03:51:55;7.22;;;4.38;;
67191;SDS011;54120;53.504;49.426;2022-08-01T03:54:23;8.70;;;4.25;;
67191;SDS011;54120;53.504;49.426;2022-08-01T03:56:53;7.28;;;5.00;;
67191;SDS011;54120;53.504;49.426;2022-08-01T03:59:20;7.28;;;4.50;;
67191;SDS011;54120;53.504;49.426;2022-08-01T04:01:47;9.02;;;4.72;;
67191;SDS011;54120;53.504;49.426;2022-08-01T04:04:14;8.77;;;5.25;;
67191;SDS011;54120;53.504;49.426;2022-08-01T04:06:41;10.07;;;4.97;;
67191;SDS011;54120;53.504;49.426;2022-08-01T04:09:09;14.65;;;4.68;;
67191;SDS011;54120;53.504;49.426;2022-08-01T04:11:37;6.57;;;4.50;;
67191;SDS011;54120;53.504;49.426;2022-08-01T04:14:03;5.63;;;4.57;;
67191;SDS011;54120;53.504;49.426;2022-08-01T04:16:29;6.25;;;4.63;;
67191;SDS011;54120;53.504;49.426;2022-08-01T04:18:56;5.25;;;4.57;;
67191;SDS011;54120;53.504;49.426;2022-08-01T04:21:25;13.75;;;4.50;;
67191;SDS011;54120;53.504;49.426;2022-08-01T04:23:56;8.82;;;4.93;;
67191;SDS011;54120;53.504;49.426;2022-08-01T04:26:25;9.48;;;4.70;;
67191;SDS011;54120;53.504;49.426;2022-08-01T04:28:53;10.10;;;4.38;;
67191;SDS011;54120;53.504;49.426;2022-08-01T04:31:21;5.45;;;4.68;;
67191;SDS011;54120;53.504;49.426;2022-08-01T04:33:51;7.35;;;4.32;;
67191;SDS011;54120;53.504;49.426;2022-08-01T04:36:22;9.88;;;5.07;;
67191;SDS011;54120;53.504;49.426;2022-08-01T04:38:50;13.60;;;4.25;;
67191;SDS011;54120;53.504;49.426;2022-08-01T04:41:21;7.15;;;3.72;;
67191;SDS011;54120;53.504;49.426;2022-08-01T04:43:48;6.57;;;3.80;;
67191;SDS011;54120;53.504;49.426;2022-08-01T04:46:24;11.15;;;3.88;;
67191;SDS011;54120;53.504;49.426;2022-08-01T04:48:54;5.40;;;3.53;;
67191;SDS011;54120;53.504;49.426;2022-08-01T04:51:21;4.82;;;3.53;;
67191;SDS011;54120;53.504;49.426;2022-08-01T04:53:49;6.50;;;3.78;;
67191;SDS011;54120;53.504;49.426;2022-08-01T04:56:16;8.52;;;3.80;;
67191;SDS011;54120;53.504;49.426;2022-08-01T04:58:43;6.85;;;3.70;;
67191;SDS011;54120;53.504;49.426;2022-08-01T05:01:09;7.28;;;4.18;;
67191;SDS011;54120;53.504;49.426;2022-08-01T05:03:36;5.43;;;3.60;;
67191;SDS011;54120;53.504;49.426;2022-08-01T05:06:02;5.95;;;4.07;;
67191;SDS011;54120;53.504;49.426;2022-08-01T05:08:29;10.82;;;3.90;;
67191;SDS011;54120;53.504;49.426;2022-08-01T05:10:55;6.18;;;4.15;;
67191;SDS011;54120;53.504;49.426;2022-08-01T05:13:30;5.70;;;3.80;;
67191;SDS011;54120;53.504;49.426;2022-08-01T05:16:01;8.30;;;3.85;;
67191;SDS011;54120;53.504;49.426;2022-08-01T05:18:38;6.35;;;4.18;;
67191;SDS011;54120;53.504;49.426;2022-08-01T05:21:04;4.63;;;3.85;;
67191;SDS011;54120;53.504;49.426;2022-08-01T05:23:30;6.35;;;3.95;;
67191;SDS011;54120;53.504;49.426;2022-08-01T05:26:01;4.57;;;4.15;;
67191;SDS011;54120;53.504;49.426;2022-08-01T05:28:30;7.40;;;4.18;;
67191;SDS011;54120;53.504;49.426;2022-08-01T05:30:56;7.93;;;4.35;;
67191;SDS011;54120;53.504;49.426;2022-08-01T05:33:22;11.93;;;4.90;;
67191;SDS011;54120;53.504;49.426;2022-08-01T05:35:48;5.68;;;4.50;;
67191;SDS011;54120;53.504;49.426;2022-08-01T05:38:15;5.15;;;4.35;;
67191;SDS011;54120;53.504;49.426;2022-08-01T05:40:41;6.82;;;4.80;;
67191;SDS011;54120;53.504;49.426;2022-08-01T05:43:07;4.85;;;4.43;;
67191;SDS011;54120;53.504;49.426;2022-08-01T05:45:33;7.68;;;4.32;;
67191;SDS011;54120;53.504;49.426;2022-08-01T05:48:00;4.47;;;4.07;;
67191;SDS011;54120;53.504;49.426;2022-08-01T05:50:26;6.03;;;4.10;;
67191;SDS011;54120;53.504;49.426;2022-08-01T05:52:52;9.95;;;4.43;;
67191;SDS011;54120;53.504;49.426;2022-08-01T05:55:18;10.55;;;4.60;;
67191;SDS011;54120;53.504;49.426;2022-08-01T05:57:44;5.30;;;4.63;;
67191;SDS011;54120;53.504;49.426;2022-08-01T06:00:10;5.18;;;4.00;;
67191;SDS011;54120;53.504;49.426;2022-08-01T06:02:44;4.75;;;4.35;;
67191;SDS011;54120;53.504;49.426;2022-08-01T06:05:10;5.82;;;4.32;;
67191;SDS011;54120;53.504;49.426;2022-08-01T06:07:36;6.25;;;4.40;;
67191;SDS011;54120;53.504;49.426;2022-08-01T06:10:04;8.48;;;4.53;;
67191;SDS011;54120;53.504;49.426;2022-08-01T06:12:35;5.70;;;4.70;;
67191;SDS011;54120;53.504;49.426;2022-08-01T06:15:04;5.10;;;4.40;;
67191;SDS011;54120;53.504;49.426;2022-08-01T06:17:33;5.43;;;4.93;;
67191;SDS011;54120;53.504;49.426;2022-08-01T06:19:59;5.90;;;4.82;;
67191;SDS011;54120;53.504;49.426;2022-08-01T06:22:26;8.27;;;4.82;;
67191;SDS011;54120;53.504;49.426;2022-08-01T06:24:52;5.15;;;4.65;;
67191;SDS011;54120;53.504;49.426;2022-08-01T06:27:18;6.28;;;4.75;;
67191;SDS011;54120;53.504;49.426;2022-08-01T06:29:44;8.00;;;4.82;;
67191;SDS011;54120;53.504;49.426;2022-08-01T06:32:10;5.53;;;4.95;;
67191;SDS011;54120;53.504;49.426;2022-08-01T06:34:43;7.95;;;5.10;;
67191;SDS011;54120;53.504;49.426;2022-08-01T06:37:09;9.65;;;5.25;;
67191;SDS011;54120;53.504;49.426;2022-08-01T06:39:35;7.03;;;5.03;;
67191;SDS011;54120;53.504;49.426;2022-08-01T06:42:01;6.95;;;4.90;;
67191;SDS011;54120;53.504;49.426;2022-08-01T06:44:27;7.53;;;5.28;;
67191;SDS011;54120;53.504;49.426;2022-08-01T06:46:53;10.98;;;8.85;;
67191;SDS011;54120;53.504;49.426;2022-08-01T06:49:20;10.38;;;6.30;;
67191;SDS011;54120;53.504;49.426;2022-08-01T06:51:46;11.25;;;6.10;;
67191;SDS011;54120;53.504;49.426;2022-08-01T06:54:12;9.90;;;6.35;;
67191;SDS011;54120;53.504;49.426;2022-08-01T06:56:38;9.32;;;5.70;;
67191;SDS011;54120;53.504;49.426;2022-08-01T06:59:04;9.95;;;6.53;;
67191;SDS011;54120;53.504;49.426;2022-08-01T07:01:30;11.10;;;5.90;;
67191;SDS011;54120;53.504;49.426;2022-08-01T07:03:56;8.95;;;6.53;;
67191;SDS011;54120;53.504;49.426;2022-08-01T07:06:23;11.43;;;6.95;;
67191;SDS011;54120;53.504;49.426;2022-08-01T07:08:51;8.55;;;6.45;;
67191;SDS011;54120;53.504;49.426;2022-08-01T07:11:18;16.73;;;6.32;;
67191;SDS011;54120;53.504;49.426;2022-08-01T07:13:45;6.30;;;5.60;;
67191;SDS011;54120;53.504;49.426;2022-08-01T07:16:14;6.10;;;5.50;;
67191;SDS011;54120;53.504;49.426;2022-08-01T07:18:41;9.27;;;5.80;;
67191;SDS011;54120;53.504;49.426;2022-08-01T07:21:07;6.55;;;5.55;;
67191;SDS011;54120;53.504;49.426;2022-08-01T07:23:34;7.07;;;5.80;;
67191;SDS011;54120;53.504;49.426;2022-08-01T07:26:00;6.35;;;5.22;;
67191;SDS011;54120;53.504;49.426;2022-08-01T07:28:28;5.97;;;5.38;;
67191;SDS011;54120;53.504;49.426;2022-08-01T07:30:55;6.65;;;5.57;;
67191;SDS011;54120;53.504;49.426;2022-08-01T07:33:21;8.50;;;6.10;;
67191;SDS011;54120;53.504;49.426;2022-08-01T07:35:48;7.28;;;6.13;;
67191;SDS011;54120;53.504;49.426;2022-08-01T07:38:14;6.72;;;6.05;;
67191;SDS011;54120;53.504;49.426;2022-08-01T07:40:43;19.98;;;6.82;;
67191;SDS011;54120;53.504;49.426;2022-08-01T07:43:09;8.65;;;6.30;;
67191;SDS011;54120;53.504;49.426;2022-08-01T07:45:36;8.05;;;6.40;;
67191;SDS011;54120;53.504;49.426;2022-08-01T07:48:03;8.43;;;6.50;;
67191;SDS011;54120;53.504;49.426;2022-08-01T07:50:30;9.60;;;5.70;;
67191;SDS011;54120;53.504;49.426;2022-08-01T07:52:56;8.93;;;5.78;;
67191;SDS011;54120;53.504;49.426;2022-08-01T07:55:22;7.93;;;5.90;;
67191;SDS011;54120;53.504;49.426;2022-08-01T07:57:48;8.13;;;6.50;;
67191;SDS011;54120;53.504;49.426;2022-08-01T08:00:15;7.20;;;6.50;;
67191;SDS011;54120;53.504;49.426;2022-08-01T08:02:41;14.88;;;6.47;;
67191;SDS011;54120;53.504;49.426;2022-08-01T08:05:07;10.05;;;6.60;;
67191;SDS011;54120;53.504;49.426;2022-08-01T08:07:34;7.00;;;6.30;;
67191;SDS011;54120;53.504;49.426;2022-08-01T08:10:00;14.05;;;12.57;;
67191;SDS011;54120;53.504;49.426;2022-08-01T08:12:26;15.77;;;7.63;;
67191;SDS011;54120;53.504;49.426;2022-08-01T08:14:52;9.57;;;6.43;;
67191;SDS011;54120;53.504;49.426;2022-08-01T08:17:18;14.40;;;6.65;;
67191;SDS011;54120;53.504;49.426;2022-08-01T08:19:44;6.60;;;6.00;;
67191;SDS011;54120;53.504;49.426;2022-08-01T08:22:10;6.95;;;6.20;;
67191;SDS011;54120;53.504;49.426;2022-08-01T08:24:37;9.48;;;6.55;;
67191;SDS011;54120;53.504;49.426;2022-08-01T08:27:03;7.93;;;6.75;;
67191;SDS011;54120;53.504;49.426;2022-08-01T08:29:30;15.23;;;7.32;;
67191;SDS011;54120;53.504;49.426;2022-08-01T08:31:58;11.93;;;6.55;;
67191;SDS011;54120;53.504;49.426;2022-08-01T08:34:26;8.68;;;6.15;;
67191;SDS011;54120;53.504;49.426;2022-08-01T08:36:53;7.80;;;5.88;;
67191;SDS011;54120;53.504;49.426;2022-08-01T08:39:20;11.30;;;5.75;;
67191;SDS011;54120;53.504;49.426;2022-08-01T08:41:46;11.15;;;6.60;;
67191;SDS011;54120;53.504;49.426;2022-08-01T08:44:13;8.93;;;5.88;;
67191;SDS011;54120;53.504;49.426;2022-08-01T08:46:41;10.68;;;5.55;;
67191;SDS011;54120;53.504;49.426;2022-08-01T08:49:09;8.77;;;6.15;;
67191;SDS011;54120;53.504;49.426;2022-08-01T08:51:39;6.68;;;6.07;;
67191;SDS011;54120;53.504;49.426;2022-08-01T08:54:07;6.35;;;5.75;;
67191;SDS011;54120;53.504;49.426;2022-08-01T08:56:38;10.43;;;5.90;;
67191;SDS011;54120;53.504;49.426;2022-08-01T08:59:04;6.00;;;5.45;;
67191;SDS011;54120;53.504;49.426;2022-08-01T09:01:31;8.25;;;5.78;;
67191;SDS011;54120;53.504;49.426;2022-08-01T09:04:03;13.68;;;6.57;;
67191;SDS011;54120;53.504;49.426;2022-08-01T09:06:30;9.27;;;4.70;;
67191;SDS011;54120;53.504;49.426;2022-08-01T09:08:57;5.57;;;5.07;;
67191;SDS011;54120;53.504;49.426;2022-08-01T09:11:24;9.55;;;5.28;;
67191;SDS011;54120;53.504;49.426;2022-08-01T09:16:30;5.97;;;5.35;;
67191;SDS011;54120;53.504;49.426;2022-08-01T09:19:13;6.60;;;5.35;;
67191;SDS011;54120;53.504;49.426;2022-08-01T09:21:58;5.82;;;5.25;;
67191;SDS011;54120;53.504;49.426;2022-08-01T09:24:27;7.47;;;5.32;;
67191;SDS011;54120;53.504;49.426;2022-08-01T09:26:55;9.88;;;5.40;;
67191;SDS011;54120;53.504;49.426;2022-08-01T09:29:22;8.93;;;5.38;;
67191;SDS011;54120;53.504;49.426;2022-08-01T09:31:51;6.35;;;5.07;;
67191;SDS011;54120;53.504;49.426;2022-08-01T09:34:24;7.63;;;5.93;;
67191;SDS011;54120;53.504;49.426;2022-08-01T09:36:56;5.95;;;5.07;;
67191;SDS011;54120;53.504;49.426;2022-08-01T09:39:28;6.57;;;4.97;;
67191;SDS011;54120;53.504;49.426;2022-08-01T09:42:19;6.80;;;4.72;;
67191;SDS011;54120;53.504;49.426;2022-08-01T09:44:47;7.07;;;5.10;;
67191;SDS011;54120;53.504;49.426;2022-08-01T09:47:14;10.88;;;5.90;;
67191;SDS011;54120;53.504;49.426;2022-08-01T09:49:42;6.22;;;4.97;;
67191;SDS011;54120;53.504;49.426;2022-08-01T09:52:12;10.70;;;4.93;;
67191;SDS011;54120;53.504;49.426;2022-08-01T09:54:39;6.38;;;4.80;;
67191;SDS011;54120;53.504;49.426;2022-08-01T09:57:07;7.63;;;4.88;;
67191;SDS011;54120;53.504;49.426;2022-08-01T09:59:39;9.65;;;5.25;;
67191;SDS011;54120;53.504;49.426;2022-08-01T10:02:08;6.75;;;5.22;;
67191;SDS011;54120;53.504;49.426;2022-08-01T10:04:45;7.63;;;5.40;;
67191;SDS011;54120;53.504;49.426;2022-08-01T10:07:13;9.40;;;5.60;;
67191;SDS011;54120;53.504;49.426;2022-08-01T10:09:41;7.07;;;5.78;;
67191;SDS011;54120;53.504;49.426;2022-08-01T10:12:12;9.43;;;6.30;;
67191;SDS011;54120;53.504;49.426;2022-08-01T10:14:40;11.73;;;6.03;;
67191;SDS011;54120;53.504;49.426;2022-08-01T10:17:07;10.07;;;6.07;;
67191;SDS011;54120;53.504;49.426;2022-08-01T10:19:35;10.65;;;6.05;;
67191;SDS011;54120;53.504;49.426;2022-08-01T10:22:04;10.98;;;6.10;;
67191;SDS011;54120;53.504;49.426;2022-08-01T10:24:34;13.68;;;6.75;;
67191;SDS011;54120;53.504;49.426;2022-08-01T10:27:04;9.70;;;5.85;;
67191;SDS011;54120;53.504;49.426;2022-08-01T10:29:43;9.45;;;5.88;;
67191;SDS011;54120;53.504;49.426;2022-08-01T10:32:15;12.27;;;6.35;;
67191;SDS011;54120;53.504;49.426;2022-08-01T10:34:42;8.52;;;6.07;;
67191;SDS011;54120;53.504;49.426;2022-08-01T10:37:09;11.57;;;7.05;;
67191;SDS011;54120;53.504;49.426;2022-08-01T10:39:36;8.60;;;6.32;;
67191;SDS011;54120;53.504;49.426;2022-08-01T10:42:04;8.27;;;6.63;;
67191;SDS011;54120;53.504;49.426;2022-08-01T10:44:31;9.25;;;6.43;;
67191;SDS011;54120;53.504;49.426;2022-08-01T10:47:18;8.82;;;6.10;;
67191;SDS011;54120;53.504;49.426;2022-08-01T10:49:56;10.50;;;6.28;;
67191;SDS011;54120;53.504;49.426;2022-08-01T10:52:29;13.77;;;5.70;;
67191;SDS011;54120;53.504;49.426;2022-08-01T10:55:05;6.45;;;5.57;;
67191;SDS011;54120;53.504;49.426;2022-08-01T11:00:10;7.05;;;5.07;;
67191;SDS011;54120;53.504;49.426;2022-08-01T11:02:57;12.30;;;5.53;;
67191;SDS011;54120;53.504;49.426;2022-08-01T11:05:37;10.60;;;6.05;;
67191;SDS011;54120;53.504;49.426;2022-08-01T11:08:11;10.13;;;5.65;;
67191;SDS011;54120;53.504;49.426;2022-08-01T11:10:46;12.48;;;6.15;;
67191;SDS011;54120;53.504;49.426;2022-08-01T11:13:13;13.05;;;5.68;;
67191;SDS011;54120;53.504;49.426;2022-08-01T11:15:40;9.85;;;6.00;;
67191;SDS011;54120;53.504;49.426;2022-08-01T11:18:40;7.55;;;5.68;;
67191;SDS011;54120;53.504;49.426;2022-08-01T11:21:00;7.65;;;5.72;;
67191;SDS011;54120;53.504;49.426;2022-08-01T11:23:28;13.07;;;6.50;;
67191;SDS011;54120;53.504;49.426;2022-08-01T11:28:31;9.45;;;5.68;;
67191;SDS011;54120;53.504;49.426;2022-08-01T11:37:53;8.05;;;5.80;;
67191;SDS011;54120;53.504;49.426;2022-08-01T11:40:23;7.00;;;5.78;;
67191;SDS011;54120;53.504;49.426;2022-08-01T11:48:22;8.60;;;5.80;;
67191;SDS011;54120;53.504;49.426;2022-08-01T11:50:54;11.00;;;5.57;;
67191;SDS011;54120;53.504;49.426;2022-08-01T11:53:21;11.93;;;5.38;;
67191;SDS011;54120;53.504;49.426;2022-08-01T11:55:51;8.95;;;5.43;;
67191;SDS011;54120;53.504;49.426;2022-08-01T11:58:28;9.25;;;5.03;;
67191;SDS011;54120;53.504;49.426;2022-08-01T12:03:02;12.07;;;5.43;;
67191;SDS011;54120;53.504;49.426;2022-08-01T12:05:30;10.68;;;5.15;;
67191;SDS011;54120;53.504;49.426;2022-08-01T12:07:59;8.27;;;5.00;;
67191;SDS011;54120;53.504;49.426;2022-08-01T12:10:27;6.43;;;5.10;;
67191;SDS011;54120;53.504;49.426;2022-08-01T12:13:02;5.57;;;4.97;;
67191;SDS011;54120;53.504;49.426;2022-08-01T12:15:36;6.85;;;5.68;;
67191;SDS011;54120;53.504;49.426;2022-08-01T12:18:04;9.02;;;5.10;;
67191;SDS011;54120;53.504;49.426;2022-08-01T12:20:33;9.65;;;5.75;;
67191;SDS011;54120;53.504;49.426;2022-08-01T12:23:03;9.43;;;5.38;;
67191;SDS011;54120;53.504;49.426;2022-08-01T12:25:34;5.95;;;4.72;;
67191;SDS011;54120;53.504;49.426;2022-08-01T12:28:01;5.90;;;5.13;;
67191;SDS011;54120;53.504;49.426;2022-08-01T12:30:32;8.00;;;5.40;;
67191;SDS011;54120;53.504;49.426;2022-08-01T12:33:03;6.20;;;5.07;;
67191;SDS011;54120;53.504;49.426;2022-08-01T12:35:31;8.05;;;5.38;;
67191;SDS011;54120;53.504;49.426;2022-08-01T12:38:00;9.77;;;5.20;;
67191;SDS011;54120;53.504;49.426;2022-08-01T12:40:35;12.93;;;5.18;;
67191;SDS011;54120;53.504;49.426;2022-08-01T12:43:06;16.52;;;5.22;;
67191;SDS011;54120;53.504;49.426;2022-08-01T12:45:37;8.43;;;5.47;;
67191;SDS011;54120;53.504;49.426;2022-08-01T12:48:10;10.82;;;5.28;;
67191;SDS011;54120;53.504;49.426;2022-08-01T12:50:38;5.80;;;4.95;;
67191;SDS011;54120;53.504;49.426;2022-08-01T12:53:07;11.23;;;5.68;;
67191;SDS011;54120;53.504;49.426;2022-08-01T12:55:43;7.95;;;5.50;;
67191;SDS011;54120;53.504;49.426;2022-08-01T12:58:15;10.95;;;6.00;;
67191;SDS011;54120;53.504;49.426;2022-08-01T13:00:43;9.30;;;5.25;;
67191;SDS011;54120;53.504;49.426;2022-08-01T13:03:14;8.88;;;6.57;;
67191;SDS011;54120;53.504;49.426;2022-08-01T13:08:13;10.75;;;6.82;;
67191;SDS011;54120;53.504;49.426;2022-08-01T13:10:44;9.85;;;6.75;;
67191;SDS011;54120;53.504;49.426;2022-08-01T13:13:11;11.20;;;7.15;;
67191;SDS011;54120;53.504;49.426;2022-08-01T13:15:39;7.25;;;6.10;;
67191;SDS011;54120;53.504;49.426;2022-08-01T13:18:25;12.45;;;6.07;;
67191;SDS011;54120;53.504;49.426;2022-08-01T13:21:14;11.00;;;5.85;;
67191;SDS011;54120;53.504;49.426;2022-08-01T13:23:41;9.10;;;5.65;;
67191;SDS011;54120;53.504;49.426;2022-08-01T13:26:43;6.88;;;5.47;;
67191;SDS011;54120;53.504;49.426;2022-08-01T13:29:18;7.07;;;4.75;;
67191;SDS011;54120;53.504;49.426;2022-08-01T13:31:46;6.70;;;5.03;;
67191;SDS011;54120;53.504;49.426;2022-08-01T13:34:13;7.20;;;4.72;;
67191;SDS011;54120;53.504;49.426;2022-08-01T13:36:39;6.55;;;4.57;;
67191;SDS011;54120;53.504;49.426;2022-08-01T13:39:06;7.75;;;4.30;;
67191;SDS011;54120;53.504;49.426;2022-08-01T13:41:51;16.77;;;4.47;;
67191;SDS011;54120;53.504;49.426;2022-08-01T13:44:18;6.88;;;4.35;;
67191;SDS011;54120;53.504;49.426;2022-08-01T13:46:44;8.23;;;3.95;;
67191;SDS011;54120;53.504;49.426;2022-08-01T13:49:13;9.13;;;4.05;;
67191;SDS011;54120;53.504;49.426;2022-08-01T13:51:39;5.15;;;3.97;;
67191;SDS011;54120;53.504;49.426;2022-08-01T13:54:05;7.03;;;3.80;;
67191;SDS011;54120;53.504;49.426;2022-08-01T13:56:32;4.93;;;3.75;;
67191;SDS011;54120;53.504;49.426;2022-08-01T13:58:58;4.80;;;4.32;;
67191;SDS011;54120;53.504;49.426;2022-08-01T14:01:24;6.95;;;3.95;;
67191;SDS011;54120;53.504;49.426;2022-08-01T14:03:50;7.35;;;3.83;;
67191;SDS011;54120;53.504;49.426;2022-08-01T14:06:17;7.20;;;3.88;;
67191;SDS011;54120;53.504;49.426;2022-08-01T14:08:45;4.72;;;4.00;;
67191;SDS011;54120;53.504;49.426;2022-08-01T14:11:12;6.07;;;3.42;;
67191;SDS011;54120;53.504;49.426;2022-08-01T14:13:38;5.15;;;3.45;;
67191;SDS011;54120;53.504;49.426;2022-08-01T14:16:06;5.95;;;3.33;;
67191;SDS011;54120;53.504;49.426;2022-08-01T14:18:32;5.90;;;3.58;;
67191;SDS011;54120;53.504;49.426;2022-08-01T14:20:59;5.97;;;3.72;;
67191;SDS011;54120;53.504;49.426;2022-08-01T14:23:25;6.53;;;3.60;;
67191;SDS011;54120;53.504;49.426;2022-08-01T14:25:52;5.97;;;3.30;;
67191;SDS011;54120;53.504;49.426;2022-08-01T14:28:18;5.78;;;3.72;;
67191;SDS011;54120;53.504;49.426;2022-08-01T14:30:45;4.57;;;3.80;;
67191;SDS011;54120;53.504;49.426;2022-08-01T14:33:11;7.72;;;3.78;;
67191;SDS011;54120;53.504;49.426;2022-08-01T14:35:38;4.47;;;3.63;;
67191;SDS011;54120;53.504;49.426;2022-08-01T14:38:05;3.90;;;3.50;;
67191;SDS011;54120;53.504;49.426;2022-08-01T14:40:31;7.20;;;3.58;;
67191;SDS011;54120;53.504;49.426;2022-08-01T14:42:57;4.32;;;3.65;;
67191;SDS011;54120;53.504;49.426;2022-08-01T14:45:23;5.05;;;3.40;;
67191;SDS011;54120;53.504;49.426;2022-08-01T14:47:50;5.70;;;3.50;;
67191;SDS011;54120;53.504;49.426;2022-08-01T14:50:16;4.45;;;3.03;;
67191;SDS011;54120;53.504;49.426;2022-08-01T14:52:43;3.17;;;2.90;;
67191;SDS011;54120;53.504;49.426;2022-08-01T14:55:11;7.90;;;3.30;;
67191;SDS011;54120;53.504;49.426;2022-08-01T14:57:38;6.05;;;3.08;;
67191;SDS011;54120;53.504;49.426;2022-08-01T15:00:07;4.47;;;2.97;;
67191;SDS011;54120;53.504;49.426;2022-08-01T15:02:40;7.43;;;2.92;;
67191;SDS011;54120;53.504;49.426;2022-08-01T15:05:07;7.40;;;2.90;;
67191;SDS011;54120;53.504;49.426;2022-08-01T15:07:34;4.65;;;3.22;;
67191;SDS011;54120;53.504;49.426;2022-08-01T15:10:00;3.63;;;3.28;;
67191;SDS011;54120;53.504;49.426;2022-08-01T15:12:28;6.38;;;3.25;;
67191;SDS011;54120;53.504;49.426;2022-08-01T15:14:55;4.28;;;3.13;;
67191;SDS011;54120;53.504;49.426;2022-08-01T15:17:25;10.00;;;3.03;;
67191;SDS011;54120;53.504;49.426;2022-08-01T15:19:58;3.95;;;3.08;;
67191;SDS011;54120;53.504;49.426;2022-08-01T15:22:27;3.72;;;3.20;;